createdAt,value
2022-12-08T08:21:48.941Z,14.38
2022-12-08T08:24:16.240Z,18.75
2022-12-08T08:26:43.155Z,17.70
2022-12-08T08:29:10.041Z,18.23
2022-12-08T08:31:36.904Z,20.70
2022-12-08T08:34:06.373Z,20.15
2022-12-08T08:36:33.563Z,19.33
2022-12-08T08:39:00.339Z,17.58
2022-12-08T08:41:27.177Z,18.80
2022-12-08T08:43:55.320Z,16.25
2022-12-08T08:46:22.252Z,18.92
2022-12-08T08:48:49.133Z,22.20
2022-12-08T08:51:16.110Z,25.25
2022-12-08T08:53:43.518Z,15.50
2022-12-08T08:56:15.982Z,17.85
2022-12-08T08:58:42.798Z,18.83
2022-12-08T09:01:14.426Z,18.35
2022-12-08T09:03:41.332Z,16.00
2022-12-08T09:06:10.565Z,28.83
2022-12-08T09:08:37.374Z,16.90
2022-12-08T09:11:04.365Z,20.75
2022-12-08T09:13:31.208Z,24.40
2022-12-08T09:15:58.236Z,16.05
2022-12-08T09:18:25.223Z,21.30
2022-12-08T09:20:52.107Z,23.20
2022-12-08T09:23:19.046Z,18.77
2022-12-08T09:25:46.121Z,18.85
2022-12-08T09:28:13.914Z,18.17
2022-12-08T09:30:41.276Z,36.05
2022-12-08T09:33:08.197Z,23.70
2022-12-08T09:35:35.059Z,21.67
2022-12-08T09:38:01.903Z,20.25
2022-12-08T09:40:32.743Z,20.40
2022-12-08T09:43:08.638Z,21.95
2022-12-08T09:45:36.532Z,24.90
2022-12-08T09:48:18.315Z,22.80
2022-12-08T09:50:58.989Z,20.47
2022-12-08T09:53:32.076Z,22.98
2022-12-08T09:56:11.427Z,38.08
2022-12-08T09:58:59.186Z,34.55
2022-12-08T10:01:44.232Z,31.27
2022-12-08T10:04:32.455Z,35.58
2022-12-08T10:07:22.582Z,35.35
2022-12-08T10:10:14.556Z,25.35
2022-12-08T10:12:55.072Z,29.05
2022-12-08T10:15:44.204Z,27.35
2022-12-08T10:18:16.922Z,24.45
2022-12-08T10:20:46.114Z,26.15
2022-12-08T10:23:12.899Z,24.25
2022-12-08T10:25:45.694Z,26.90
2022-12-08T10:28:12.884Z,24.23
2022-12-08T10:30:43.095Z,25.45
2022-12-08T10:33:17.884Z,26.77
2022-12-08T10:35:50.855Z,39.45
2022-12-08T10:38:32.811Z,22.42
2022-12-08T10:41:10.985Z,24.00
2022-12-08T10:43:44.491Z,23.05
2022-12-08T10:46:26.047Z,21.42
2022-12-08T10:48:57.873Z,21.67
2022-12-08T10:51:33.918Z,21.97
2022-12-08T10:54:01.133Z,23.42
2022-12-08T10:56:30.330Z,24.02
2022-12-08T10:59:18.560Z,31.30
2022-12-08T11:01:51.226Z,24.75
2022-12-08T11:04:35.168Z,25.05
2022-12-08T11:07:04.691Z,31.60
2022-12-08T11:09:41.226Z,27.85
2022-12-08T11:12:15.859Z,23.60
2022-12-08T11:14:42.662Z,26.75
2022-12-08T11:17:13.229Z,31.17
2022-12-08T11:19:45.978Z,25.27
2022-12-08T11:22:31.055Z,27.55
2022-12-08T11:25:22.467Z,30.23
2022-12-08T11:27:52.995Z,22.42
2022-12-08T11:30:22.786Z,20.00
2022-12-08T11:33:03.436Z,18.75
2022-12-08T11:35:38.698Z,23.25
2022-12-08T11:38:29.935Z,19.95
2022-12-08T11:41:21.101Z,28.70
2022-12-08T11:44:21.957Z,23.38
2022-12-08T11:47:13.217Z,21.73
2022-12-08T11:49:42.611Z,23.73
2022-12-08T11:52:28.098Z,19.27
2022-12-08T11:54:59.927Z,20.35
2022-12-08T11:57:28.592Z,19.60
2022-12-08T11:59:58.112Z,21.25
2022-12-08T12:02:28.994Z,21.90
2022-12-08T12:05:02.782Z,20.08
2022-12-08T12:08:05.552Z,27.08
2022-12-08T12:10:32.322Z,23.88
2022-12-08T12:13:30.238Z,21.23
2022-12-08T12:16:19.918Z,23.67
2022-12-08T12:19:14.577Z,21.55
2022-12-08T12:21:45.489Z,23.02
2022-12-08T12:24:26.699Z,21.80
2022-12-08T12:27:05.107Z,22.67
2022-12-08T12:29:35.370Z,24.42
2022-12-08T12:32:08.643Z,24.45
2022-12-08T12:34:44.079Z,23.58
2022-12-08T12:37:16.607Z,21.30
2022-12-08T12:39:52.586Z,22.50
2022-12-08T12:43:06.037Z,26.08
2022-12-08T12:45:34.818Z,21.10
2022-12-08T12:48:01.588Z,20.65
2022-12-08T12:50:34.673Z,20.95
2022-12-08T12:53:12.305Z,21.45
2022-12-08T12:55:57.187Z,21.10
2022-12-08T12:58:36.614Z,21.38
2022-12-08T13:01:12.792Z,21.88
2022-12-08T13:03:41.527Z,26.30
2022-12-08T13:06:14.643Z,19.85
2022-12-08T13:08:51.860Z,21.45
2022-12-08T13:11:19.148Z,21.23
2022-12-08T13:14:06.359Z,25.65
2022-12-08T13:16:37.268Z,26.52
2022-12-08T13:19:12.938Z,21.60
2022-12-08T13:21:40.581Z,20.98
2022-12-08T13:24:10.486Z,31.65
2022-12-08T13:27:11.268Z,30.60
2022-12-08T13:29:39.442Z,42.97
2022-12-08T13:32:09.826Z,30.30
2022-12-08T13:34:42.097Z,27.73
2022-12-08T13:37:12.052Z,23.35
2022-12-08T13:40:28.189Z,29.67
2022-12-08T13:43:18.901Z,28.10
2022-12-08T13:46:52.579Z,26.88
2022-12-08T13:55:26.815Z,30.65
2022-12-08T13:57:36.052Z,22.65
2022-12-08T14:00:16.448Z,21.58
2022-12-08T14:02:51.284Z,25.73
2022-12-08T14:05:34.660Z,22.40
2022-12-08T14:08:58.346Z,22.42
2022-12-08T14:11:33.669Z,20.05
2022-12-08T14:14:07.499Z,21.85
2022-12-08T14:16:42.922Z,31.55
2022-12-08T14:19:20.215Z,25.67
2022-12-08T14:21:51.183Z,27.20
2022-12-08T14:24:18.032Z,23.63
2022-12-08T14:26:48.515Z,24.05
2022-12-08T14:29:36.007Z,30.25
2022-12-08T14:32:02.915Z,31.83
2022-12-08T14:34:29.751Z,29.60
2022-12-08T14:36:56.644Z,23.70
2022-12-08T14:39:23.762Z,23.02
2022-12-08T14:42:00.995Z,39.65
2022-12-08T14:44:32.974Z,27.52
2022-12-08T14:47:10.516Z,24.13
2022-12-08T14:49:40.148Z,24.20
2022-12-08T14:52:13.114Z,30.42
2022-12-08T14:54:40.851Z,23.65
2022-12-08T14:57:10.443Z,26.35
2022-12-08T14:59:39.175Z,25.83
2022-12-08T15:02:19.344Z,26.90
2022-12-08T15:04:48.529Z,24.63
2022-12-08T15:07:18.962Z,24.05
2022-12-08T15:09:48.992Z,25.08
2022-12-08T15:12:26.173Z,30.20
2022-12-08T15:15:01.817Z,26.90
2022-12-08T15:17:42.071Z,27.52
2022-12-08T15:20:35.634Z,32.78
2022-12-08T15:23:02.945Z,30.00
2022-12-08T15:25:29.848Z,33.75
2022-12-08T15:27:57.995Z,31.75
2022-12-08T15:30:28.825Z,32.85
2022-12-08T15:32:56.272Z,39.83
2022-12-08T15:35:23.833Z,38.53
2022-12-08T15:37:50.721Z,36.72
2022-12-08T15:40:20.244Z,32.58
2022-12-08T15:42:47.444Z,36.47
2022-12-08T15:45:15.378Z,26.23
2022-12-08T15:47:43.401Z,26.80
2022-12-08T15:50:21.835Z,35.35
2022-12-08T15:52:50.077Z,28.05
2022-12-08T15:55:19.195Z,22.85
2022-12-08T16:00:52.329Z,25.38
2022-12-08T16:09:25.190Z,27.25
2022-12-08T16:12:10.841Z,31.10
2022-12-08T16:17:26.875Z,35.72
2022-12-08T16:19:54.392Z,40.80
2022-12-08T16:22:54.178Z,47.97
2022-12-08T16:25:19.455Z,36.80
2022-12-08T16:30:36.470Z,33.22
2022-12-08T16:33:03.505Z,29.70
2022-12-08T16:35:31.366Z,38.20
2022-12-08T16:37:58.275Z,58.63
2022-12-08T16:40:25.325Z,48.40
2022-12-08T16:42:52.206Z,40.72
2022-12-08T16:45:22.551Z,46.60
2022-12-08T16:47:53.746Z,42.72
2022-12-08T16:50:22.087Z,43.78
2022-12-08T16:52:49.767Z,45.15
2022-12-08T16:55:19.008Z,57.45
2022-12-08T16:57:47.454Z,41.50
2022-12-08T17:00:18.292Z,33.85
2022-12-08T17:02:45.224Z,50.15
2022-12-08T17:05:17.479Z,45.25
2022-12-08T17:07:46.476Z,44.25
2022-12-08T17:10:16.751Z,48.22
2022-12-08T17:12:44.410Z,47.63
2022-12-08T17:15:15.471Z,45.53
2022-12-08T17:17:42.649Z,57.35
2022-12-08T17:20:13.808Z,50.40
2022-12-08T17:22:43.794Z,61.85
2022-12-08T17:25:11.092Z,61.67
2022-12-08T17:27:39.196Z,61.00
2022-12-08T17:30:07.750Z,46.30
2022-12-08T17:32:34.924Z,42.80
2022-12-08T17:35:01.995Z,41.30
2022-12-08T17:37:29.164Z,58.20
2022-12-08T17:39:56.435Z,57.35
2022-12-08T17:42:26.026Z,50.00
2022-12-08T17:44:54.182Z,38.88
2022-12-08T17:47:21.463Z,38.35
2022-12-08T17:49:48.510Z,44.90
2022-12-08T17:52:15.504Z,35.58
2022-12-08T17:54:42.407Z,45.17
2022-12-08T17:57:09.346Z,43.92
2022-12-08T17:59:36.442Z,52.58
2022-12-08T18:02:04.411Z,38.72
2022-12-08T18:04:31.451Z,42.53
2022-12-08T18:07:00.287Z,55.42
2022-12-08T18:09:27.330Z,38.90
2022-12-08T18:11:54.201Z,46.80
2022-12-08T18:14:21.105Z,48.15
2022-12-08T18:16:49.354Z,38.70
2022-12-08T18:19:16.847Z,37.17
2022-12-08T18:21:44.132Z,40.55
2022-12-08T18:24:19.009Z,42.97
2022-12-08T18:26:46.390Z,40.35
2022-12-08T18:29:13.203Z,40.88
2022-12-08T18:31:40.037Z,41.35
2022-12-08T18:34:09.634Z,50.35
2022-12-08T18:36:36.506Z,36.25
2022-12-08T18:39:08.779Z,36.47
2022-12-08T18:41:37.561Z,42.53
2022-12-08T18:44:04.703Z,53.97
2022-12-08T18:46:34.506Z,43.25
2022-12-08T18:49:01.426Z,50.70
2022-12-08T18:51:28.395Z,50.75
2022-12-08T18:53:55.258Z,45.65
2022-12-08T18:56:30.559Z,49.53
2022-12-08T18:59:03.290Z,53.85
2022-12-08T19:01:38.382Z,54.10
2022-12-08T19:06:57.199Z,42.78
2022-12-08T19:09:26.672Z,41.20
2022-12-08T19:11:54.045Z,43.92
2022-12-08T19:14:27.829Z,41.47
2022-12-08T19:16:54.983Z,41.97
2022-12-08T19:19:21.806Z,43.30
2022-12-08T19:21:48.713Z,38.70
2022-12-08T19:24:15.528Z,39.22
2022-12-08T19:26:42.705Z,35.92
2022-12-08T19:29:10.181Z,42.65
2022-12-08T19:31:37.355Z,37.67
2022-12-08T19:34:06.175Z,40.30
2022-12-08T19:36:35.666Z,45.22
2022-12-08T19:39:22.587Z,38.45
2022-12-08T19:42:09.170Z,43.65
2022-12-08T19:44:54.294Z,43.50
2022-12-08T19:47:23.696Z,44.13
2022-12-08T19:49:51.136Z,37.63
2022-12-08T19:52:18.723Z,54.40
2022-12-08T19:54:45.774Z,36.15
2022-12-08T19:57:13.149Z,44.42
2022-12-08T19:59:40.073Z,41.55
2022-12-08T20:02:07.496Z,36.55
2022-12-08T20:04:34.430Z,38.05
2022-12-08T20:07:01.320Z,34.33
2022-12-08T20:09:28.169Z,35.92
2022-12-08T20:11:55.084Z,40.42
2022-12-08T20:14:23.312Z,39.45
2022-12-08T20:16:50.741Z,34.22
2022-12-08T20:19:17.839Z,36.45
2022-12-08T20:21:44.797Z,36.63
2022-12-08T20:24:11.834Z,42.05
2022-12-08T20:26:38.770Z,35.50
2022-12-08T20:29:05.682Z,39.28
2022-12-08T20:31:33.677Z,38.75
2022-12-08T20:34:01.751Z,36.30
2022-12-08T20:36:29.161Z,36.58
2022-12-08T20:38:56.362Z,33.65
2022-12-08T20:41:23.700Z,45.90
2022-12-08T20:43:51.868Z,43.47
2022-12-08T20:46:20.396Z,41.67
2022-12-08T20:48:48.775Z,38.63
2022-12-08T20:51:20.026Z,37.72
2022-12-08T20:53:47.157Z,39.75
2022-12-08T20:56:19.730Z,42.63
2022-12-08T20:58:47.363Z,44.00
2022-12-08T21:01:17.615Z,45.70
2022-12-08T21:03:45.363Z,45.20
2022-12-08T21:06:13.409Z,43.38
2022-12-08T21:08:43.868Z,38.58
2022-12-08T21:11:10.950Z,38.33
2022-12-08T21:13:38.595Z,36.10
2022-12-08T21:16:06.398Z,45.15
2022-12-08T21:18:39.113Z,43.20
2022-12-08T21:21:09.727Z,32.67
2022-12-08T21:23:36.611Z,43.55
2022-12-08T21:26:09.623Z,39.80
2022-12-08T21:28:36.754Z,39.85
2022-12-08T21:31:07.838Z,39.30
2022-12-08T21:33:35.082Z,51.28
2022-12-08T21:36:09.458Z,39.03
2022-12-08T21:38:38.517Z,39.78
2022-12-08T21:41:08.325Z,43.40
2022-12-08T21:43:35.502Z,46.22
2022-12-08T21:46:02.710Z,41.25
2022-12-08T21:48:29.659Z,39.88
